sensor_id;sensor_type;location;lat;lon;timestamp;P1;durP1;ratioP1;P2;durP2;ratioP2
48002;SDS011;33768;48.578;11.574;2023-07-22T00:01:49;1.93;;;1.60;;
48002;SDS011;33768;48.578;11.574;2023-07-22T00:04:53;2.37;;;1.50;;
48002;SDS011;33768;48.578;11.574;2023-07-22T00:07:57;3.03;;;1.87;;
48002;SDS011;33768;48.578;11.574;2023-07-22T00:11:02;2.83;;;1.87;;
48002;SDS011;33768;48.578;11.574;2023-07-22T00:14:07;1.97;;;1.67;;
48002;SDS011;33768;48.578;11.574;2023-07-22T00:17:13;2.73;;;1.63;;
48002;SDS011;33768;48.578;11.574;2023-07-22T00:20:18;2.17;;;1.50;;
48002;SDS011;33768;48.578;11.574;2023-07-22T00:23:23;2.00;;;1.67;;
48002;SDS011;33768;48.578;11.574;2023-07-22T00:26:28;3.73;;;1.97;;
48002;SDS011;33768;48.578;11.574;2023-07-22T00:29:32;1.93;;;1.70;;
48002;SDS011;33768;48.578;11.574;2023-07-22T00:32:37;3.67;;;1.70;;
48002;SDS011;33768;48.578;11.574;2023-07-22T00:35:42;2.90;;;1.90;;
48002;SDS011;33768;48.578;11.574;2023-07-22T00:38:46;2.33;;;1.60;;
48002;SDS011;33768;48.578;11.574;2023-07-22T00:41:51;2.63;;;1.70;;
48002;SDS011;33768;48.578;11.574;2023-07-22T00:44:55;5.50;;;1.73;;
48002;SDS011;33768;48.578;11.574;2023-07-22T00:47:59;2.47;;;1.90;;
48002;SDS011;33768;48.578;11.574;2023-07-22T00:51:03;2.87;;;1.63;;
48002;SDS011;33768;48.578;11.574;2023-07-22T00:54:08;3.60;;;1.80;;
48002;SDS011;33768;48.578;11.574;2023-07-22T00:57:12;3.70;;;1.90;;
48002;SDS011;33768;48.578;11.574;2023-07-22T01:00:16;2.70;;;2.10;;
48002;SDS011;33768;48.578;11.574;2023-07-22T01:03:20;2.47;;;1.80;;
48002;SDS011;33768;48.578;11.574;2023-07-22T01:06:25;2.23;;;1.80;;
48002;SDS011;33768;48.578;11.574;2023-07-22T01:09:39;4.53;;;1.93;;
48002;SDS011;33768;48.578;11.574;2023-07-22T01:12:44;3.17;;;1.97;;
48002;SDS011;33768;48.578;11.574;2023-07-22T01:15:49;3.73;;;1.97;;
48002;SDS011;33768;48.578;11.574;2023-07-22T01:18:54;3.63;;;2.40;;
48002;SDS011;33768;48.578;11.574;2023-07-22T01:22:02;4.93;;;1.53;;
48002;SDS011;33768;48.578;11.574;2023-07-22T01:25:11;2.97;;;1.90;;
48002;SDS011;33768;48.578;11.574;2023-07-22T01:28:16;2.23;;;1.53;;
48002;SDS011;33768;48.578;11.574;2023-07-22T01:31:20;1.87;;;1.67;;
48002;SDS011;33768;48.578;11.574;2023-07-22T01:34:24;3.63;;;1.83;;
48002;SDS011;33768;48.578;11.574;2023-07-22T01:37:28;3.00;;;2.30;;
48002;SDS011;33768;48.578;11.574;2023-07-22T01:40:33;2.43;;;1.80;;
48002;SDS011;33768;48.578;11.574;2023-07-22T01:43:37;3.77;;;2.07;;
48002;SDS011;33768;48.578;11.574;2023-07-22T01:46:41;2.37;;;1.73;;
48002;SDS011;33768;48.578;11.574;2023-07-22T01:49:45;3.80;;;2.00;;
48002;SDS011;33768;48.578;11.574;2023-07-22T01:52:50;5.57;;;2.20;;
48002;SDS011;33768;48.578;11.574;2023-07-22T01:55:54;4.27;;;1.97;;
48002;SDS011;33768;48.578;11.574;2023-07-22T01:58:58;3.70;;;1.90;;
48002;SDS011;33768;48.578;11.574;2023-07-22T02:02:02;5.97;;;1.93;;
48002;SDS011;33768;48.578;11.574;2023-07-22T02:05:06;6.60;;;2.00;;
48002;SDS011;33768;48.578;11.574;2023-07-22T02:08:11;3.70;;;1.90;;
48002;SDS011;33768;48.578;11.574;2023-07-22T02:11:16;3.40;;;2.13;;
48002;SDS011;33768;48.578;11.574;2023-07-22T02:14:20;2.23;;;2.03;;
48002;SDS011;33768;48.578;11.574;2023-07-22T02:17:24;4.33;;;2.10;;
48002;SDS011;33768;48.578;11.574;2023-07-22T02:20:28;3.43;;;2.20;;
48002;SDS011;33768;48.578;11.574;2023-07-22T02:23:33;2.57;;;2.20;;
48002;SDS011;33768;48.578;11.574;2023-07-22T02:26:37;2.80;;;2.03;;
48002;SDS011;33768;48.578;11.574;2023-07-22T02:29:41;4.87;;;2.03;;
48002;SDS011;33768;48.578;11.574;2023-07-22T02:32:45;3.87;;;1.90;;
48002;SDS011;33768;48.578;11.574;2023-07-22T02:35:49;2.97;;;1.87;;
48002;SDS011;33768;48.578;11.574;2023-07-22T02:38:54;3.40;;;1.80;;
48002;SDS011;33768;48.578;11.574;2023-07-22T02:41:58;2.77;;;1.90;;
48002;SDS011;33768;48.578;11.574;2023-07-22T02:45:02;2.73;;;1.90;;
48002;SDS011;33768;48.578;11.574;2023-07-22T02:48:08;4.07;;;2.20;;
48002;SDS011;33768;48.578;11.574;2023-07-22T02:51:13;2.63;;;2.10;;
48002;SDS011;33768;48.578;11.574;2023-07-22T02:54:17;5.53;;;2.20;;
48002;SDS011;33768;48.578;11.574;2023-07-22T02:57:21;2.47;;;1.90;;
48002;SDS011;33768;48.578;11.574;2023-07-22T03:00:25;2.70;;;1.80;;
48002;SDS011;33768;48.578;11.574;2023-07-22T03:03:30;3.77;;;2.13;;
48002;SDS011;33768;48.578;11.574;2023-07-22T03:06:36;2.33;;;1.83;;
48002;SDS011;33768;48.578;11.574;2023-07-22T03:09:40;3.33;;;2.33;;
48002;SDS011;33768;48.578;11.574;2023-07-22T03:12:45;4.77;;;2.37;;
48002;SDS011;33768;48.578;11.574;2023-07-22T03:15:50;3.00;;;2.23;;
48002;SDS011;33768;48.578;11.574;2023-07-22T03:18:55;2.67;;;2.00;;
48002;SDS011;33768;48.578;11.574;2023-07-22T03:21:59;4.63;;;2.30;;
48002;SDS011;33768;48.578;11.574;2023-07-22T03:25:03;5.77;;;2.30;;
48002;SDS011;33768;48.578;11.574;2023-07-22T03:28:09;2.87;;;2.10;;
48002;SDS011;33768;48.578;11.574;2023-07-22T03:31:13;3.40;;;2.00;;
48002;SDS011;33768;48.578;11.574;2023-07-22T03:34:17;2.40;;;1.90;;
48002;SDS011;33768;48.578;11.574;2023-07-22T03:37:22;3.13;;;2.40;;
48002;SDS011;33768;48.578;11.574;2023-07-22T03:40:25;2.90;;;1.93;;
48002;SDS011;33768;48.578;11.574;2023-07-22T03:43:34;2.47;;;2.20;;
48002;SDS011;33768;48.578;11.574;2023-07-22T03:46:38;2.77;;;2.30;;
48002;SDS011;33768;48.578;11.574;2023-07-22T03:49:42;3.40;;;2.20;;
48002;SDS011;33768;48.578;11.574;2023-07-22T03:52:47;3.67;;;1.90;;
48002;SDS011;33768;48.578;11.574;2023-07-22T03:55:51;3.83;;;2.30;;
48002;SDS011;33768;48.578;11.574;2023-07-22T03:58:55;2.40;;;1.97;;
48002;SDS011;33768;48.578;11.574;2023-07-22T04:01:59;4.80;;;2.23;;
48002;SDS011;33768;48.578;11.574;2023-07-22T04:05:04;4.03;;;2.40;;
48002;SDS011;33768;48.578;11.574;2023-07-22T04:08:08;5.57;;;2.50;;
48002;SDS011;33768;48.578;11.574;2023-07-22T04:11:12;6.70;;;2.33;;
48002;SDS011;33768;48.578;11.574;2023-07-22T04:14:17;3.13;;;2.30;;
48002;SDS011;33768;48.578;11.574;2023-07-22T04:17:22;2.67;;;2.00;;
48002;SDS011;33768;48.578;11.574;2023-07-22T04:20:26;7.90;;;2.77;;
48002;SDS011;33768;48.578;11.574;2023-07-22T04:23:31;3.47;;;2.23;;
48002;SDS011;33768;48.578;11.574;2023-07-22T04:26:37;4.73;;;2.27;;
48002;SDS011;33768;48.578;11.574;2023-07-22T04:29:41;3.87;;;2.27;;
48002;SDS011;33768;48.578;11.574;2023-07-22T04:32:48;3.33;;;2.30;;
48002;SDS011;33768;48.578;11.574;2023-07-22T04:35:54;8.47;;;2.27;;
48002;SDS011;33768;48.578;11.574;2023-07-22T04:39:00;4.23;;;2.40;;
48002;SDS011;33768;48.578;11.574;2023-07-22T04:42:04;4.27;;;2.03;;
48002;SDS011;33768;48.578;11.574;2023-07-22T04:45:09;2.80;;;2.03;;
48002;SDS011;33768;48.578;11.574;2023-07-22T04:48:15;3.77;;;2.37;;
48002;SDS011;33768;48.578;11.574;2023-07-22T04:51:20;2.93;;;2.20;;
48002;SDS011;33768;48.578;11.574;2023-07-22T04:54:24;3.83;;;2.33;;
48002;SDS011;33768;48.578;11.574;2023-07-22T04:57:31;3.10;;;2.30;;
48002;SDS011;33768;48.578;11.574;2023-07-22T05:00:36;2.87;;;2.10;;
48002;SDS011;33768;48.578;11.574;2023-07-22T05:03:43;3.23;;;2.20;;
48002;SDS011;33768;48.578;11.574;2023-07-22T05:06:47;4.10;;;2.10;;
48002;SDS011;33768;48.578;11.574;2023-07-22T05:09:52;5.70;;;2.33;;
48002;SDS011;33768;48.578;11.574;2023-07-22T05:12:57;3.60;;;2.40;;
48002;SDS011;33768;48.578;11.574;2023-07-22T05:16:01;2.60;;;2.17;;
48002;SDS011;33768;48.578;11.574;2023-07-22T05:19:05;2.30;;;2.00;;
48002;SDS011;33768;48.578;11.574;2023-07-22T05:22:12;4.03;;;2.10;;
48002;SDS011;33768;48.578;11.574;2023-07-22T05:25:16;6.77;;;2.67;;
48002;SDS011;33768;48.578;11.574;2023-07-22T05:28:20;4.90;;;3.07;;
48002;SDS011;33768;48.578;11.574;2023-07-22T05:31:24;3.70;;;2.47;;
48002;SDS011;33768;48.578;11.574;2023-07-22T05:34:29;6.73;;;2.87;;
48002;SDS011;33768;48.578;11.574;2023-07-22T05:37:34;6.23;;;3.07;;
48002;SDS011;33768;48.578;11.574;2023-07-22T05:40:41;3.87;;;2.87;;
48002;SDS011;33768;48.578;11.574;2023-07-22T05:44:15;4.73;;;2.93;;
48002;SDS011;33768;48.578;11.574;2023-07-22T05:47:19;6.47;;;2.93;;
48002;SDS011;33768;48.578;11.574;2023-07-22T05:50:23;6.97;;;2.70;;
48002;SDS011;33768;48.578;11.574;2023-07-22T05:57:02;5.37;;;2.63;;
48002;SDS011;33768;48.578;11.574;2023-07-22T06:00:07;5.67;;;3.50;;
48002;SDS011;33768;48.578;11.574;2023-07-22T06:03:19;5.43;;;3.00;;
48002;SDS011;33768;48.578;11.574;2023-07-22T06:06:26;5.13;;;2.80;;
48002;SDS011;33768;48.578;11.574;2023-07-22T06:09:31;4.80;;;2.77;;
48002;SDS011;33768;48.578;11.574;2023-07-22T06:12:35;4.00;;;2.80;;
48002;SDS011;33768;48.578;11.574;2023-07-22T06:15:39;4.20;;;2.63;;
48002;SDS011;33768;48.578;11.574;2023-07-22T06:18:43;3.23;;;2.87;;
48002;SDS011;33768;48.578;11.574;2023-07-22T06:21:48;5.30;;;2.70;;
48002;SDS011;33768;48.578;11.574;2023-07-22T06:24:52;4.83;;;2.83;;
48002;SDS011;33768;48.578;11.574;2023-07-22T06:27:56;2.70;;;2.20;;
48002;SDS011;33768;48.578;11.574;2023-07-22T06:31:00;5.60;;;2.50;;
48002;SDS011;33768;48.578;11.574;2023-07-22T06:34:05;5.10;;;2.43;;
48002;SDS011;33768;48.578;11.574;2023-07-22T06:37:09;4.17;;;2.50;;
48002;SDS011;33768;48.578;11.574;2023-07-22T06:40:13;3.27;;;2.20;;
48002;SDS011;33768;48.578;11.574;2023-07-22T06:43:18;7.40;;;2.73;;
48002;SDS011;33768;48.578;11.574;2023-07-22T06:46:21;2.40;;;2.20;;
48002;SDS011;33768;48.578;11.574;2023-07-22T06:49:26;3.47;;;2.10;;
48002;SDS011;33768;48.578;11.574;2023-07-22T06:52:31;6.30;;;2.50;;
48002;SDS011;33768;48.578;11.574;2023-07-22T06:55:35;4.70;;;2.27;;
48002;SDS011;33768;48.578;11.574;2023-07-22T06:58:39;3.30;;;2.50;;
48002;SDS011;33768;48.578;11.574;2023-07-22T07:01:43;4.47;;;2.70;;
48002;SDS011;33768;48.578;11.574;2023-07-22T07:04:48;3.00;;;2.40;;
48002;SDS011;33768;48.578;11.574;2023-07-22T07:07:53;4.90;;;2.63;;
48002;SDS011;33768;48.578;11.574;2023-07-22T07:10:58;3.00;;;2.20;;
48002;SDS011;33768;48.578;11.574;2023-07-22T07:14:04;3.67;;;2.47;;
48002;SDS011;33768;48.578;11.574;2023-07-22T07:17:09;5.10;;;2.10;;
48002;SDS011;33768;48.578;11.574;2023-07-22T07:20:13;5.07;;;3.00;;
48002;SDS011;33768;48.578;11.574;2023-07-22T07:23:18;3.97;;;1.93;;
48002;SDS011;33768;48.578;11.574;2023-07-22T07:26:22;2.73;;;2.07;;
48002;SDS011;33768;48.578;11.574;2023-07-22T07:29:26;9.60;;;2.47;;
48002;SDS011;33768;48.578;11.574;2023-07-22T07:32:30;6.73;;;2.30;;
48002;SDS011;33768;48.578;11.574;2023-07-22T07:35:34;2.53;;;1.70;;
48002;SDS011;33768;48.578;11.574;2023-07-22T07:38:39;2.60;;;1.70;;
48002;SDS011;33768;48.578;11.574;2023-07-22T07:41:43;2.93;;;1.70;;
48002;SDS011;33768;48.578;11.574;2023-07-22T07:44:47;2.10;;;1.80;;
48002;SDS011;33768;48.578;11.574;2023-07-22T07:47:51;3.27;;;1.47;;
48002;SDS011;33768;48.578;11.574;2023-07-22T07:50:55;3.00;;;1.73;;
48002;SDS011;33768;48.578;11.574;2023-07-22T07:54:00;2.90;;;2.13;;
48002;SDS011;33768;48.578;11.574;2023-07-22T07:57:04;2.03;;;1.80;;
48002;SDS011;33768;48.578;11.574;2023-07-22T08:00:09;7.50;;;2.27;;
48002;SDS011;33768;48.578;11.574;2023-07-22T08:03:13;3.10;;;2.10;;
48002;SDS011;33768;48.578;11.574;2023-07-22T08:06:17;3.90;;;1.87;;
48002;SDS011;33768;48.578;11.574;2023-07-22T08:09:21;3.87;;;2.03;;
48002;SDS011;33768;48.578;11.574;2023-07-22T08:12:26;3.65;;;1.90;;
48002;SDS011;33768;48.578;11.574;2023-07-22T08:15:30;2.92;;;1.65;;
48002;SDS011;33768;48.578;11.574;2023-07-22T08:18:34;1.88;;;1.52;;
48002;SDS011;33768;48.578;11.574;2023-07-22T08:21:39;2.50;;;1.65;;
48002;SDS011;33768;48.578;11.574;2023-07-22T08:24:44;2.70;;;2.00;;
48002;SDS011;33768;48.578;11.574;2023-07-22T08:27:48;2.55;;;1.83;;
48002;SDS011;33768;48.578;11.574;2023-07-22T08:30:56;2.60;;;1.45;;
48002;SDS011;33768;48.578;11.574;2023-07-22T08:34:00;3.10;;;1.27;;
48002;SDS011;33768;48.578;11.574;2023-07-22T08:37:04;2.33;;;1.58;;
48002;SDS011;33768;48.578;11.574;2023-07-22T08:40:08;10.15;;;1.90;;
48002;SDS011;33768;48.578;11.574;2023-07-22T08:43:13;2.40;;;1.20;;
48002;SDS011;33768;48.578;11.574;2023-07-22T08:46:19;2.40;;;1.63;;
48002;SDS011;33768;48.578;11.574;2023-07-22T08:49:26;1.65;;;1.40;;
48002;SDS011;33768;48.578;11.574;2023-07-22T08:52:31;3.55;;;1.40;;
48002;SDS011;33768;48.578;11.574;2023-07-22T08:55:37;1.83;;;1.35;;
48002;SDS011;33768;48.578;11.574;2023-07-22T08:58:43;8.85;;;2.28;;
48002;SDS011;33768;48.578;11.574;2023-07-22T09:01:50;3.55;;;1.45;;
48002;SDS011;33768;48.578;11.574;2023-07-22T09:04:55;1.60;;;1.20;;
48002;SDS011;33768;48.578;11.574;2023-07-22T09:08:01;1.63;;;1.33;;
48002;SDS011;33768;48.578;11.574;2023-07-22T09:11:06;2.60;;;1.42;;
48002;SDS011;33768;48.578;11.574;2023-07-22T09:14:11;1.83;;;1.35;;
48002;SDS011;33768;48.578;11.574;2023-07-22T09:17:16;1.85;;;1.40;;
48002;SDS011;33768;48.578;11.574;2023-07-22T09:20:20;1.98;;;1.63;;
48002;SDS011;33768;48.578;11.574;2023-07-22T09:23:33;3.58;;;1.30;;
48002;SDS011;33768;48.578;11.574;2023-07-22T09:26:40;3.17;;;1.50;;
48002;SDS011;33768;48.578;11.574;2023-07-22T09:29:53;6.22;;;1.65;;
48002;SDS011;33768;48.578;11.574;2023-07-22T09:32:58;1.40;;;1.30;;
48002;SDS011;33768;48.578;11.574;2023-07-22T09:45:12;10.27;;;1.73;;
48002;SDS011;33768;48.578;11.574;2023-07-22T09:52:15;2.05;;;1.30;;
48002;SDS011;33768;48.578;11.574;2023-07-22T09:55:23;3.20;;;1.25;;
48002;SDS011;33768;48.578;11.574;2023-07-22T09:58:29;13.95;;;2.10;;
48002;SDS011;33768;48.578;11.574;2023-07-22T10:01:34;1.95;;;1.52;;
48002;SDS011;33768;48.578;11.574;2023-07-22T10:04:42;2.35;;;1.50;;
48002;SDS011;33768;48.578;11.574;2023-07-22T10:07:57;1.90;;;1.45;;
48002;SDS011;33768;48.578;11.574;2023-07-22T10:11:03;1.88;;;1.40;;
48002;SDS011;33768;48.578;11.574;2023-07-22T10:14:10;2.58;;;1.35;;
48002;SDS011;33768;48.578;11.574;2023-07-22T10:17:17;3.10;;;1.50;;
48002;SDS011;33768;48.578;11.574;2023-07-22T10:20:22;2.38;;;1.30;;
48002;SDS011;33768;48.578;11.574;2023-07-22T10:23:27;1.40;;;1.17;;
48002;SDS011;33768;48.578;11.574;2023-07-22T10:26:33;2.15;;;1.40;;
48002;SDS011;33768;48.578;11.574;2023-07-22T10:29:38;1.73;;;1.30;;
48002;SDS011;33768;48.578;11.574;2023-07-22T10:32:43;2.88;;;1.38;;
48002;SDS011;33768;48.578;11.574;2023-07-22T10:36:05;4.03;;;1.30;;
48002;SDS011;33768;48.578;11.574;2023-07-22T10:39:17;4.43;;;1.35;;
48002;SDS011;33768;48.578;11.574;2023-07-22T10:42:31;3.78;;;1.20;;
48002;SDS011;33768;48.578;11.574;2023-07-22T10:46:10;3.28;;;1.25;;
48002;SDS011;33768;48.578;11.574;2023-07-22T10:49:11;2.90;;;1.30;;
48002;SDS011;33768;48.578;11.574;2023-07-22T10:52:37;1.83;;;1.20;;
48002;SDS011;33768;48.578;11.574;2023-07-22T10:56:07;3.90;;;1.33;;
48002;SDS011;33768;48.578;11.574;2023-07-22T10:59:25;1.40;;;1.30;;
48002;SDS011;33768;48.578;11.574;2023-07-22T11:02:30;9.60;;;2.38;;
48002;SDS011;33768;48.578;11.574;2023-07-22T11:06:08;1.77;;;1.20;;
48002;SDS011;33768;48.578;11.574;2023-07-22T11:09:05;1.45;;;1.20;;
48002;SDS011;33768;48.578;11.574;2023-07-22T11:12:13;5.10;;;1.73;;
48002;SDS011;33768;48.578;11.574;2023-07-22T11:15:20;22.88;;;2.33;;
48002;SDS011;33768;48.578;11.574;2023-07-22T11:18:35;2.85;;;1.33;;
48002;SDS011;33768;48.578;11.574;2023-07-22T11:21:40;2.35;;;1.65;;
48002;SDS011;33768;48.578;11.574;2023-07-22T11:24:48;2.65;;;1.20;;
48002;SDS011;33768;48.578;11.574;2023-07-22T11:27:52;1.48;;;1.25;;
48002;SDS011;33768;48.578;11.574;2023-07-22T11:30:57;2.72;;;1.33;;
48002;SDS011;33768;48.578;11.574;2023-07-22T11:34:05;3.03;;;1.50;;
48002;SDS011;33768;48.578;11.574;2023-07-22T11:37:09;13.40;;;2.65;;
48002;SDS011;33768;48.578;11.574;2023-07-22T11:40:13;4.78;;;1.33;;
48002;SDS011;33768;48.578;11.574;2023-07-22T11:43:17;3.92;;;1.23;;
48002;SDS011;33768;48.578;11.574;2023-07-22T11:46:21;4.53;;;1.90;;
48002;SDS011;33768;48.578;11.574;2023-07-22T11:49:29;2.28;;;1.40;;
48002;SDS011;33768;48.578;11.574;2023-07-22T11:52:37;3.00;;;1.30;;
48002;SDS011;33768;48.578;11.574;2023-07-22T11:55:41;3.65;;;1.38;;
48002;SDS011;33768;48.578;11.574;2023-07-22T11:58:50;1.38;;;1.27;;
48002;SDS011;33768;48.578;11.574;2023-07-22T12:02:00;5.30;;;1.60;;
48002;SDS011;33768;48.578;11.574;2023-07-22T12:05:05;7.07;;;1.77;;
48002;SDS011;33768;48.578;11.574;2023-07-22T12:08:14;5.70;;;1.50;;
48002;SDS011;33768;48.578;11.574;2023-07-22T12:11:19;13.38;;;1.92;;
48002;SDS011;33768;48.578;11.574;2023-07-22T12:14:36;6.30;;;1.40;;
48002;SDS011;33768;48.578;11.574;2023-07-22T12:17:47;5.57;;;1.20;;
48002;SDS011;33768;48.578;11.574;2023-07-22T12:20:52;2.08;;;1.50;;
48002;SDS011;33768;48.578;11.574;2023-07-22T12:23:56;6.70;;;1.70;;
48002;SDS011;33768;48.578;11.574;2023-07-22T12:27:00;2.20;;;1.70;;
48002;SDS011;33768;48.578;11.574;2023-07-22T12:30:05;1.70;;;1.33;;
48002;SDS011;33768;48.578;11.574;2023-07-22T12:33:11;2.00;;;1.40;;
48002;SDS011;33768;48.578;11.574;2023-07-22T12:36:15;5.15;;;1.50;;
48002;SDS011;33768;48.578;11.574;2023-07-22T12:39:19;2.80;;;1.50;;
48002;SDS011;33768;48.578;11.574;2023-07-22T12:42:23;1.70;;;1.55;;
48002;SDS011;33768;48.578;11.574;2023-07-22T12:45:28;2.03;;;1.58;;
48002;SDS011;33768;48.578;11.574;2023-07-22T12:48:33;4.57;;;1.70;;
48002;SDS011;33768;48.578;11.574;2023-07-22T12:51:38;1.90;;;1.35;;
48002;SDS011;33768;48.578;11.574;2023-07-22T12:54:42;2.28;;;1.50;;
48002;SDS011;33768;48.578;11.574;2023-07-22T12:57:46;3.85;;;1.60;;
48002;SDS011;33768;48.578;11.574;2023-07-22T13:00:50;2.70;;;1.40;;
48002;SDS011;33768;48.578;11.574;2023-07-22T13:03:54;3.17;;;2.35;;
48002;SDS011;33768;48.578;11.574;2023-07-22T13:06:59;2.08;;;1.42;;
48002;SDS011;33768;48.578;11.574;2023-07-22T13:10:03;3.88;;;1.63;;
48002;SDS011;33768;48.578;11.574;2023-07-22T13:13:10;3.08;;;1.52;;
48002;SDS011;33768;48.578;11.574;2023-07-22T13:16:14;3.90;;;1.30;;
48002;SDS011;33768;48.578;11.574;2023-07-22T13:19:18;4.68;;;1.70;;
48002;SDS011;33768;48.578;11.574;2023-07-22T13:22:22;3.13;;;1.70;;
48002;SDS011;33768;48.578;11.574;2023-07-22T13:25:27;2.25;;;1.42;;
48002;SDS011;33768;48.578;11.574;2023-07-22T13:28:31;5.93;;;1.50;;
48002;SDS011;33768;48.578;11.574;2023-07-22T13:31:35;2.30;;;1.60;;
48002;SDS011;33768;48.578;11.574;2023-07-22T13:34:39;2.92;;;1.73;;
48002;SDS011;33768;48.578;11.574;2023-07-22T13:37:43;2.17;;;1.50;;
48002;SDS011;33768;48.578;11.574;2023-07-22T13:40:47;4.03;;;1.50;;
48002;SDS011;33768;48.578;11.574;2023-07-22T13:43:52;4.63;;;1.70;;
48002;SDS011;33768;48.578;11.574;2023-07-22T13:46:56;2.28;;;1.55;;
48002;SDS011;33768;48.578;11.574;2023-07-22T13:50:00;1.73;;;1.30;;
48002;SDS011;33768;48.578;11.574;2023-07-22T13:53:04;2.97;;;1.73;;
48002;SDS011;33768;48.578;11.574;2023-07-22T13:56:08;2.75;;;1.35;;
48002;SDS011;33768;48.578;11.574;2023-07-22T13:59:12;3.03;;;1.33;;
48002;SDS011;33768;48.578;11.574;2023-07-22T14:02:16;5.28;;;1.50;;
48002;SDS011;33768;48.578;11.574;2023-07-22T14:05:20;2.30;;;1.50;;
48002;SDS011;33768;48.578;11.574;2023-07-22T14:08:25;1.92;;;1.38;;
48002;SDS011;33768;48.578;11.574;2023-07-22T14:11:29;6.75;;;1.92;;
48002;SDS011;33768;48.578;11.574;2023-07-22T14:14:33;1.85;;;1.45;;
48002;SDS011;33768;48.578;11.574;2023-07-22T14:17:37;3.30;;;1.77;;
48002;SDS011;33768;48.578;11.574;2023-07-22T14:20:44;2.97;;;1.50;;
48002;SDS011;33768;48.578;11.574;2023-07-22T14:23:49;2.40;;;1.45;;
48002;SDS011;33768;48.578;11.574;2023-07-22T14:26:53;2.90;;;1.42;;
48002;SDS011;33768;48.578;11.574;2023-07-22T14:29:57;1.95;;;1.58;;
48002;SDS011;33768;48.578;11.574;2023-07-22T14:33:01;2.63;;;1.60;;
48002;SDS011;33768;48.578;11.574;2023-07-22T14:36:05;2.20;;;1.70;;
48002;SDS011;33768;48.578;11.574;2023-07-22T14:39:09;2.55;;;1.42;;
48002;SDS011;33768;48.578;11.574;2023-07-22T14:42:13;2.78;;;1.90;;
48002;SDS011;33768;48.578;11.574;2023-07-22T14:45:18;3.33;;;1.73;;
48002;SDS011;33768;48.578;11.574;2023-07-22T14:48:22;5.10;;;1.52;;
48002;SDS011;33768;48.578;11.574;2023-07-22T14:51:26;4.68;;;1.90;;
48002;SDS011;33768;48.578;11.574;2023-07-22T14:54:31;2.03;;;1.60;;
48002;SDS011;33768;48.578;11.574;2023-07-22T14:57:35;1.67;;;1.55;;
48002;SDS011;33768;48.578;11.574;2023-07-22T15:00:39;5.93;;;2.08;;
48002;SDS011;33768;48.578;11.574;2023-07-22T15:03:43;3.03;;;1.70;;
48002;SDS011;33768;48.578;11.574;2023-07-22T15:06:48;6.03;;;1.70;;
48002;SDS011;33768;48.578;11.574;2023-07-22T15:09:52;2.33;;;1.90;;
48002;SDS011;33768;48.578;11.574;2023-07-22T15:12:57;5.07;;;1.75;;
48002;SDS011;33768;48.578;11.574;2023-07-22T15:16:01;2.50;;;1.52;;
48002;SDS011;33768;48.578;11.574;2023-07-22T15:19:06;1.70;;;1.50;;
48002;SDS011;33768;48.578;11.574;2023-07-22T15:22:10;1.90;;;1.60;;
48002;SDS011;33768;48.578;11.574;2023-07-22T15:25:14;2.78;;;1.60;;
48002;SDS011;33768;48.578;11.574;2023-07-22T15:28:18;2.47;;;1.60;;
48002;SDS011;33768;48.578;11.574;2023-07-22T15:31:22;3.25;;;1.55;;
48002;SDS011;33768;48.578;11.574;2023-07-22T15:34:27;2.58;;;1.45;;
48002;SDS011;33768;48.578;11.574;2023-07-22T15:37:31;3.38;;;1.63;;
48002;SDS011;33768;48.578;11.574;2023-07-22T15:40:35;4.32;;;1.60;;
48002;SDS011;33768;48.578;11.574;2023-07-22T15:43:40;2.17;;;1.58;;
48002;SDS011;33768;48.578;11.574;2023-07-22T15:46:44;1.92;;;1.55;;
48002;SDS011;33768;48.578;11.574;2023-07-22T15:49:48;1.98;;;1.45;;
48002;SDS011;33768;48.578;11.574;2023-07-22T15:52:52;2.63;;;1.65;;
48002;SDS011;33768;48.578;11.574;2023-07-22T15:55:57;3.30;;;1.50;;
48002;SDS011;33768;48.578;11.574;2023-07-22T15:59:01;2.92;;;1.70;;
48002;SDS011;33768;48.578;11.574;2023-07-22T16:02:05;1.65;;;1.50;;
48002;SDS011;33768;48.578;11.574;2023-07-22T16:05:09;3.10;;;1.50;;
48002;SDS011;33768;48.578;11.574;2023-07-22T16:08:14;2.00;;;1.70;;
48002;SDS011;33768;48.578;11.574;2023-07-22T16:11:19;2.50;;;1.70;;
48002;SDS011;33768;48.578;11.574;2023-07-22T16:14:23;3.15;;;1.70;;
48002;SDS011;33768;48.578;11.574;2023-07-22T16:17:27;2.90;;;1.73;;
48002;SDS011;33768;48.578;11.574;2023-07-22T16:20:31;3.88;;;1.40;;
48002;SDS011;33768;48.578;11.574;2023-07-22T16:23:35;1.83;;;1.52;;
48002;SDS011;33768;48.578;11.574;2023-07-22T16:26:39;2.40;;;1.58;;
48002;SDS011;33768;48.578;11.574;2023-07-22T16:29:43;2.58;;;1.73;;
48002;SDS011;33768;48.578;11.574;2023-07-22T16:32:47;2.72;;;1.50;;
48002;SDS011;33768;48.578;11.574;2023-07-22T16:35:51;2.60;;;1.80;;
48002;SDS011;33768;48.578;11.574;2023-07-22T16:38:55;5.00;;;1.90;;
48002;SDS011;33768;48.578;11.574;2023-07-22T16:42:00;3.95;;;1.90;;
48002;SDS011;33768;48.578;11.574;2023-07-22T16:45:04;2.70;;;1.50;;
48002;SDS011;33768;48.578;11.574;2023-07-22T16:48:08;2.00;;;1.70;;
48002;SDS011;33768;48.578;11.574;2023-07-22T16:51:12;2.70;;;1.67;;
48002;SDS011;33768;48.578;11.574;2023-07-22T16:54:16;2.22;;;1.67;;
48002;SDS011;33768;48.578;11.574;2023-07-22T16:57:20;3.15;;;1.48;;
48002;SDS011;33768;48.578;11.574;2023-07-22T17:00:24;2.25;;;1.50;;
48002;SDS011;33768;48.578;11.574;2023-07-22T17:03:28;2.00;;;1.60;;
48002;SDS011;33768;48.578;11.574;2023-07-22T17:06:33;5.43;;;2.00;;
48002;SDS011;33768;48.578;11.574;2023-07-22T17:09:37;2.75;;;1.90;;
48002;SDS011;33768;48.578;11.574;2023-07-22T17:12:42;2.40;;;1.58;;
48002;SDS011;33768;48.578;11.574;2023-07-22T17:15:45;2.00;;;1.60;;
48002;SDS011;33768;48.578;11.574;2023-07-22T17:18:49;2.13;;;1.80;;
48002;SDS011;33768;48.578;11.574;2023-07-22T17:21:54;2.27;;;1.60;;
48002;SDS011;33768;48.578;11.574;2023-07-22T17:24:58;5.90;;;2.10;;
48002;SDS011;33768;48.578;11.574;2023-07-22T17:28:02;8.83;;;3.37;;
48002;SDS011;33768;48.578;11.574;2023-07-22T17:31:06;9.73;;;4.00;;
48002;SDS011;33768;48.578;11.574;2023-07-22T17:34:10;6.20;;;2.20;;
48002;SDS011;33768;48.578;11.574;2023-07-22T17:37:14;13.13;;;3.57;;
48002;SDS011;33768;48.578;11.574;2023-07-22T17:40:19;3.67;;;1.90;;
48002;SDS011;33768;48.578;11.574;2023-07-22T17:43:23;4.87;;;1.90;;
48002;SDS011;33768;48.578;11.574;2023-07-22T17:46:27;2.17;;;1.40;;
48002;SDS011;33768;48.578;11.574;2023-07-22T17:49:31;2.97;;;2.00;;
48002;SDS011;33768;48.578;11.574;2023-07-22T17:52:36;2.50;;;1.87;;
48002;SDS011;33768;48.578;11.574;2023-07-22T17:55:40;3.37;;;2.00;;
48002;SDS011;33768;48.578;11.574;2023-07-22T17:58:44;3.20;;;2.07;;
48002;SDS011;33768;48.578;11.574;2023-07-22T18:01:48;2.87;;;1.87;;
48002;SDS011;33768;48.578;11.574;2023-07-22T18:04:52;2.77;;;1.60;;
48002;SDS011;33768;48.578;11.574;2023-07-22T18:07:56;3.20;;;1.90;;
48002;SDS011;33768;48.578;11.574;2023-07-22T18:11:00;2.10;;;1.80;;
48002;SDS011;33768;48.578;11.574;2023-07-22T18:14:04;4.80;;;2.03;;
48002;SDS011;33768;48.578;11.574;2023-07-22T18:17:09;3.37;;;1.87;;
48002;SDS011;33768;48.578;11.574;2023-07-22T18:20:13;3.83;;;2.30;;
48002;SDS011;33768;48.578;11.574;2023-07-22T18:23:17;2.90;;;2.00;;
48002;SDS011;33768;48.578;11.574;2023-07-22T18:26:22;3.70;;;2.00;;
48002;SDS011;33768;48.578;11.574;2023-07-22T18:29:26;4.03;;;2.00;;
48002;SDS011;33768;48.578;11.574;2023-07-22T18:32:30;4.63;;;2.33;;
48002;SDS011;33768;48.578;11.574;2023-07-22T18:35:34;2.87;;;2.10;;